Fin-ally — WDG3773 — position and weather

sailwx.info

Track history (hours):
 
Tides and Currents Weather Stations Pressure Air Temp Water Temp Dewpoint Dewpoint Depression Visibility Wind Speed Wind Dir Waves Ship Positions

Fin-ally

Owner: Siegel, Andrew, Newtown, CT. More information available from US FCC via Universal Licensing System and Coast Guard Vessel Documentation Center.

Last reported at 2016-Dec-12 12:31 UTC. Time now 2017-Jan-17 11:05 UTC.
Position N 34°44' W 076°40'.
Warning: this ship's position is 35 days out of date.

Type: Pleasure craft. MMSI: 367529510.

Date/timePositionNaut miles runAvg speedWind from/ knotsBaromVisibWave heightAir tempDewpointWater temp
2016-Dec-12 12:31N 34°44' W 076°40'0 0.0
2016-Dec-12 11:31N 34°44' W 076°40'0 0.0
2016-Dec-12 10:31N 34°44' W 076°40'0 0.0
2016-Dec-12 09:31N 34°44' W 076°40'0 0.0
2016-Dec-12 08:31N 34°44' W 076°40'0 0.0
2016-Dec-12 07:31N 34°44' W 076°40'0 0.0
2016-Dec-12 06:31N 34°44' W 076°40'0 0.0
2016-Dec-12 05:31N 34°44' W 076°40'0 0.0
2016-Dec-12 04:31N 34°44' W 076°40'0 0.0
2016-Dec-12 03:31N 34°44' W 076°40'0 0.0
2016-Dec-12 02:31N 34°44' W 076°40'0 0.0
2016-Dec-12 01:31N 34°44' W 076°40'0 0.0
2016-Dec-12 00:31N 34°44' W 076°40'0 0.0
2016-Dec-11 23:31N 34°44' W 076°40'1 1.3
2016-Dec-11 22:33N 34°43' W 076°41'8 0.7
2016-Dec-11 11:25N 34°37' W 076°37'7 8.3
2016-Dec-11 10:31N 34°44' W 076°40'0 0.0
2016-Dec-11 09:31N 34°44' W 076°40'0 0.0
2016-Dec-11 08:28N 34°44' W 076°40'0 0.0
2016-Dec-11 07:31N 34°44' W 076°40'0 0.0
2016-Dec-11 06:31N 34°44' W 076°40'0 0.0
2016-Dec-11 05:31N 34°44' W 076°40'0 0.0
2016-Dec-11 04:31N 34°44' W 076°40'0 0.0
2016-Dec-11 03:31N 34°44' W 076°40'0 0.0
2016-Dec-11 02:31N 34°44' W 076°40'0 0.0
2016-Dec-11 01:31N 34°44' W 076°40'0 0.0
2016-Dec-11 00:31N 34°44' W 076°40'0 0.0
2016-Dec-10 23:31N 34°44' W 076°40'0 0.0
2016-Dec-10 22:31N 34°44' W 076°40'10 9.9
2016-Dec-10 21:31N 34°34' W 076°35'1 0.1
2016-Dec-10 13:33N 34°34' W 076°36'1010.5
2016-Dec-10 12:34N 34°44' W 076°40'  
Track history (hours):
 
Tides and Currents Weather Stations Pressure Air Temp Water Temp Dewpoint Dewpoint Depression Visibility Wind Speed Wind Dir Waves Ship Positions

Fin-ally

Owner: Siegel, Andrew, Newtown, CT. More information available from US FCC via Universal Licensing System and Coast Guard Vessel Documentation Center.

Last reported at 2016-Dec-12 12:31 UTC. Time now 2017-Jan-17 11:05 UTC.
Position N 34°44' W 076°40'.
Warning: this ship's position is 35 days out of date.

Type: Pleasure craft. MMSI: 367529510.

Date/timePositionNaut miles runAvg speedWind from/ knotsBaromVisibWave heightAir tempDewpointWater temp
2016-Dec-12 12:31N 34°44' W 076°40'0 0.0
2016-Dec-12 11:31N 34°44' W 076°40'0 0.0
2016-Dec-12 10:31N 34°44' W 076°40'0 0.0
2016-Dec-12 09:31N 34°44' W 076°40'0 0.0
2016-Dec-12 08:31N 34°44' W 076°40'0 0.0
2016-Dec-12 07:31N 34°44' W 076°40'0 0.0
2016-Dec-12 06:31N 34°44' W 076°40'0 0.0
2016-Dec-12 05:31N 34°44' W 076°40'0 0.0
2016-Dec-12 04:31N 34°44' W 076°40'0 0.0
2016-Dec-12 03:31N 34°44' W 076°40'0 0.0
2016-Dec-12 02:31N 34°44' W 076°40'0 0.0
2016-Dec-12 01:31N 34°44' W 076°40'0 0.0
2016-Dec-12 00:31N 34°44' W 076°40'0 0.0
2016-Dec-11 23:31N 34°44' W 076°40'1 1.3
2016-Dec-11 22:33N 34°43' W 076°41'8 0.7
2016-Dec-11 11:25N 34°37' W 076°37'7 8.3
2016-Dec-11 10:31N 34°44' W 076°40'0 0.0
2016-Dec-11 09:31N 34°44' W 076°40'0 0.0
2016-Dec-11 08:28N 34°44' W 076°40'0 0.0
2016-Dec-11 07:31N 34°44' W 076°40'0 0.0
2016-Dec-11 06:31N 34°44' W 076°40'0 0.0
2016-Dec-11 05:31N 34°44' W 076°40'0 0.0
2016-Dec-11 04:31N 34°44' W 076°40'0 0.0
2016-Dec-11 03:31N 34°44' W 076°40'0 0.0
2016-Dec-11 02:31N 34°44' W 076°40'0 0.0
2016-Dec-11 01:31N 34°44' W 076°40'0 0.0
2016-Dec-11 00:31N 34°44' W 076°40'0 0.0
2016-Dec-10 23:31N 34°44' W 076°40'0 0.0
2016-Dec-10 22:31N 34°44' W 076°40'10 9.9
2016-Dec-10 21:31N 34°34' W 076°35'1 0.1
2016-Dec-10 13:33N 34°34' W 076°36'1010.5
2016-Dec-10 12:34N 34°44' W 076°40'  

Dump ship's entire track history